Main page
METAR-TAF:

METAR-TAF

Airports :

Ingeniero Aeronáutico Ambrosio L.V. Taravella International Airport

Córdoba, Argentina

latitude: 31-19S, longitude: 064-13W, elevation: 484 m

Current weather observation

The report was made 43 minutes ago, at 11:00 UTC
Wind 3 kt from the West/Southwest
Temperature 2°C
Humidity 47%
Pressure 1032 hPa
Visibility 10 km or more
no clouds below 1500 m and no cumulonimbus

METAR: SACO 231100Z 24003KT CAVOK 02/M08 Q1032 NOSIG

Time: 08:43 (11:43 UTC)

Forecast

The report was made 43 minutes ago, at 11:00 UTC
Forecast valid from 23 at 12 UTC to 24 at 12 UTC
Wind 10 kt from the South/Southeast
Visibility 10 km or more
no clouds below 1500 m and no cumulonimbus
Becoming
from 23 at 18 UTC to 23 at 20 UTC
Wind 10 kt from the East/Southeast
Becoming
from 24 at 03 UTC to 24 at 05 UTC
Wind 5 kt from the Northwest

TAF: SACO 231100Z 2312/2412 16010KT CAVOK TX12/2318Z TNM03/2410Z BECMG 2318/2320 11010KT BECMG 2403/2405 32005KT

Weather observations and forecasts of more than 4000 airports (METAR and TAF reports).

The available stations are represented by yellow and red dots on the map.

Hover mouse over dot to see the name of the station.

Then click to see weather observations and forecasts.

To change the map : click on the green buttons with a black cross to zoom in, on the green button with a dash to zoom out, or on the green arrows for adjacent maps.


METAR-TAF: